createdAt,value
2018-06-24T00:02:26.393Z,3.93
2018-06-24T00:04:55.022Z,4.63
2018-06-24T00:07:23.559Z,5.13
2018-06-24T00:09:52.092Z,6.90
2018-06-24T00:12:21.064Z,11.07
2018-06-24T00:14:49.739Z,13.03
2018-06-24T00:17:18.580Z,11.93
2018-06-24T00:19:47.330Z,30.07
2018-06-24T00:22:16.096Z,24.97
2018-06-24T00:24:44.823Z,34.90
2018-06-24T00:27:13.503Z,41.13
2018-06-24T00:29:42.185Z,46.83
2018-06-24T00:32:10.940Z,67.40
2018-06-24T00:34:39.567Z,60.77
2018-06-24T00:37:08.279Z,55.90
2018-06-24T00:39:36.972Z,52.57
2018-06-24T00:42:05.548Z,51.27
2018-06-24T00:44:34.474Z,51.40
2018-06-24T00:47:03.171Z,47.87
2018-06-24T00:49:31.965Z,53.90
2018-06-24T00:52:00.773Z,56.23
2018-06-24T00:54:29.397Z,55.07
2018-06-24T00:56:58.074Z,51.77
2018-06-24T00:59:37.661Z,48.80
2018-06-24T01:02:06.292Z,50.07
2018-06-24T01:04:34.960Z,50.33
2018-06-24T01:07:03.696Z,49.07
2018-06-24T01:09:32.295Z,44.43
2018-06-24T01:12:00.932Z,38.47
2018-06-24T01:14:29.631Z,33.63
2018-06-24T01:16:58.219Z,32.33
2018-06-24T01:19:26.845Z,26.60
2018-06-24T01:21:55.505Z,24.30
2018-06-24T01:24:24.082Z,21.47
2018-06-24T01:26:52.912Z,20.77
2018-06-24T01:29:21.565Z,15.67
2018-06-24T01:31:50.164Z,14.23
2018-06-24T01:34:18.811Z,12.10
2018-06-24T01:36:47.422Z,13.17
2018-06-24T01:39:15.968Z,13.73
2018-06-24T01:41:44.481Z,21.10
2018-06-24T01:44:13.088Z,25.53
2018-06-24T01:46:41.996Z,26.33
2018-06-24T01:49:10.745Z,26.60
2018-06-24T01:51:39.747Z,29.37
2018-06-24T01:54:08.339Z,29.90
2018-06-24T01:56:36.975Z,30.67
2018-06-24T01:59:05.521Z,29.30
2018-06-24T02:01:34.059Z,28.33
2018-06-24T02:04:02.625Z,27.87
2018-06-24T02:06:31.897Z,27.07
2018-06-24T02:09:01.076Z,29.17
2018-06-24T02:11:29.680Z,27.20
2018-06-24T02:13:58.299Z,26.33
2018-06-24T02:16:26.859Z,27.63
2018-06-24T02:18:55.852Z,26.43
2018-06-24T02:21:24.538Z,27.33
2018-06-24T02:23:53.170Z,26.33
2018-06-24T02:26:21.797Z,28.20
2018-06-24T02:28:50.447Z,24.80
2018-06-24T02:31:19.008Z,22.60
2018-06-24T02:33:47.861Z,23.60
2018-06-24T02:36:16.518Z,24.73
2018-06-24T02:38:45.033Z,24.13
2018-06-24T02:41:13.789Z,27.20
2018-06-24T02:43:42.764Z,28.30
2018-06-24T02:46:11.408Z,29.07
2018-06-24T02:48:40.186Z,28.37
2018-06-24T02:51:08.906Z,25.03
2018-06-24T02:53:37.527Z,25.50
2018-06-24T02:56:06.483Z,23.40
2018-06-24T02:58:35.224Z,22.47
2018-06-24T03:01:04.087Z,23.63
2018-06-24T03:03:32.741Z,23.63
2018-06-24T03:06:01.565Z,25.57
2018-06-24T03:08:30.229Z,27.17
2018-06-24T03:10:58.913Z,26.70
2018-06-24T03:13:27.592Z,26.33
2018-06-24T03:15:56.276Z,24.70
2018-06-24T03:18:25.069Z,26.37
2018-06-24T03:20:53.736Z,25.80
2018-06-24T03:23:22.334Z,25.43
2018-06-24T03:25:51.004Z,21.23
2018-06-24T03:28:19.623Z,21.83
2018-06-24T03:30:48.404Z,18.90
2018-06-24T03:33:17.139Z,17.50
2018-06-24T03:35:45.784Z,20.07
2018-06-24T03:38:14.437Z,21.07
2018-06-24T03:40:43.249Z,25.97
2018-06-24T03:43:11.910Z,27.83
2018-06-24T03:45:40.515Z,24.40
2018-06-24T03:48:09.988Z,27.20
2018-06-24T03:50:38.698Z,27.60
2018-06-24T03:53:07.367Z,27.70
2018-06-24T03:55:36.170Z,26.73
2018-06-24T03:58:04.859Z,30.63
2018-06-24T04:00:33.484Z,28.63
2018-06-24T04:03:02.248Z,18.60
2018-06-24T04:05:30.928Z,17.00
2018-06-24T04:07:59.626Z,19.30
2018-06-24T04:10:28.299Z,17.27
2018-06-24T04:12:56.980Z,16.07
2018-06-24T04:15:25.684Z,13.63
2018-06-24T04:17:54.322Z,15.03
2018-06-24T04:20:22.945Z,15.20
2018-06-24T04:22:51.824Z,14.40
2018-06-24T04:25:20.589Z,14.37
2018-06-24T04:27:49.166Z,14.50
2018-06-24T04:30:17.786Z,15.00
2018-06-24T04:32:46.436Z,15.07
2018-06-24T04:35:15.639Z,15.10
2018-06-24T04:37:44.252Z,14.77
2018-06-24T04:40:12.843Z,15.50
2018-06-24T04:42:41.391Z,16.77
2018-06-24T04:45:10.031Z,17.03
2018-06-24T04:47:38.706Z,17.97
2018-06-24T04:50:07.799Z,17.97
2018-06-24T04:52:36.669Z,17.43
2018-06-24T04:55:05.396Z,17.90
2018-06-24T04:57:34.204Z,17.03
2018-06-24T05:00:03.006Z,19.10
2018-06-24T05:02:31.718Z,18.53
2018-06-24T05:05:00.285Z,17.90
2018-06-24T05:07:28.928Z,18.33
2018-06-24T05:09:57.581Z,18.57
2018-06-24T05:12:26.245Z,19.10
2018-06-24T05:14:54.819Z,17.30
2018-06-24T05:17:23.481Z,17.10
2018-06-24T05:19:52.225Z,17.27
2018-06-24T05:22:20.947Z,17.17
2018-06-24T05:24:49.688Z,17.87
2018-06-24T05:27:18.281Z,16.60
2018-06-24T05:29:47.172Z,17.23
2018-06-24T05:32:15.929Z,16.43
2018-06-24T05:34:44.708Z,11.43
2018-06-24T05:37:13.387Z,6.27
2018-06-24T05:39:41.984Z,7.47
2018-06-24T05:42:11.435Z,6.27
2018-06-24T05:44:40.096Z,6.07
2018-06-24T05:47:08.940Z,5.90
2018-06-24T05:49:37.727Z,5.07
2018-06-24T05:52:06.334Z,3.90
2018-06-24T05:54:35.097Z,3.90
2018-06-24T05:57:03.850Z,4.03
2018-06-24T05:59:33.413Z,3.10
2018-06-24T06:02:02.069Z,3.30
2018-06-24T06:04:30.682Z,3.10
2018-06-24T06:07:00.117Z,3.70
2018-06-24T06:09:28.695Z,2.90
2018-06-24T06:11:57.293Z,2.53
2018-06-24T06:14:26.154Z,2.57
2018-06-24T06:16:54.824Z,3.33
2018-06-24T06:19:23.668Z,3.00
2018-06-24T06:21:52.477Z,3.00
2018-06-24T06:24:21.417Z,2.63
2018-06-24T06:26:51.037Z,2.40
2018-06-24T06:29:20.226Z,2.60
2018-06-24T06:31:48.929Z,2.67
2018-06-24T06:34:17.701Z,2.93
2018-06-24T06:36:46.460Z,2.60
2018-06-24T06:39:15.387Z,2.57
2018-06-24T06:41:43.954Z,2.77
2018-06-24T06:44:12.574Z,3.10
2018-06-24T06:46:41.263Z,2.77
2018-06-24T06:49:09.917Z,3.17
2018-06-24T06:51:38.538Z,6.13
2018-06-24T06:54:07.184Z,3.83
2018-06-24T06:56:35.647Z,3.13
2018-06-24T06:59:04.232Z,2.97
2018-06-24T07:01:32.853Z,3.20
2018-06-24T07:04:01.390Z,3.47
2018-06-24T07:06:30.053Z,3.30
2018-06-24T07:08:58.625Z,3.40
2018-06-24T07:11:27.349Z,3.27
2018-06-24T07:13:55.978Z,4.00
2018-06-24T07:16:24.611Z,3.90
2018-06-24T07:18:53.118Z,4.00
2018-06-24T07:21:21.763Z,4.60
2018-06-24T07:23:50.519Z,4.23
2018-06-24T07:26:19.270Z,4.33
2018-06-24T07:28:47.919Z,4.60
2018-06-24T07:31:16.583Z,5.07
2018-06-24T07:33:45.296Z,5.50
2018-06-24T07:36:13.855Z,5.33
2018-06-24T07:38:42.577Z,5.80
2018-06-24T07:41:11.121Z,5.37
2018-06-24T07:43:39.712Z,5.40
2018-06-24T07:46:08.344Z,5.40
2018-06-24T07:48:37.124Z,5.87
2018-06-24T07:51:05.933Z,5.80
2018-06-24T07:53:34.550Z,5.03
2018-06-24T07:56:03.264Z,5.17
2018-06-24T07:58:31.990Z,5.50
2018-06-24T08:01:00.616Z,6.10
2018-06-24T08:03:29.199Z,5.87
2018-06-24T08:05:57.816Z,5.73
2018-06-24T08:08:26.460Z,5.70
2018-06-24T08:10:55.306Z,5.80
2018-06-24T08:13:24.330Z,5.40
2018-06-24T08:15:52.961Z,6.70
2018-06-24T08:18:21.609Z,5.70
2018-06-24T08:20:50.210Z,6.00
2018-06-24T08:23:18.876Z,6.43
2018-06-24T08:25:47.580Z,6.07
2018-06-24T08:28:16.355Z,6.57
2018-06-24T08:30:44.991Z,6.70
2018-06-24T08:33:13.607Z,6.53
2018-06-24T08:35:42.168Z,5.83
2018-06-24T08:38:10.829Z,5.80
2018-06-24T08:40:39.573Z,6.17
2018-06-24T08:43:08.676Z,5.97
2018-06-24T08:45:37.601Z,6.17
2018-06-24T08:48:06.255Z,5.87
2018-06-24T08:50:34.900Z,6.00
2018-06-24T08:53:03.600Z,6.23
2018-06-24T08:55:32.297Z,6.07
2018-06-24T08:58:00.965Z,6.27
2018-06-24T09:00:29.636Z,6.43
2018-06-24T09:02:58.222Z,6.47
2018-06-24T09:05:26.799Z,5.97
2018-06-24T09:07:55.817Z,6.30
2018-06-24T09:10:24.433Z,5.83
2018-06-24T09:12:53.098Z,6.10
2018-06-24T09:15:21.802Z,6.10
2018-06-24T09:17:50.374Z,5.70
2018-06-24T09:20:19.034Z,6.00
2018-06-24T09:22:47.896Z,5.87
2018-06-24T09:25:16.489Z,6.63
2018-06-24T09:27:45.239Z,7.37
2018-06-24T09:30:13.972Z,6.17
2018-06-24T09:32:42.540Z,6.30
2018-06-24T09:35:11.221Z,5.17
2018-06-24T09:37:39.967Z,5.57
2018-06-24T09:40:08.661Z,5.33
2018-06-24T09:42:37.377Z,5.23
2018-06-24T09:45:06.088Z,5.77
2018-06-24T09:47:34.731Z,4.70
2018-06-24T09:50:03.453Z,4.60
2018-06-24T09:52:32.165Z,4.30
2018-06-24T09:55:00.899Z,4.43
2018-06-24T09:57:29.536Z,4.27
2018-06-24T09:59:58.691Z,3.80
2018-06-24T10:02:27.769Z,4.03
2018-06-24T10:04:58.456Z,5.17
2018-06-24T10:07:27.476Z,3.80
2018-06-24T10:09:56.705Z,3.13
2018-06-24T10:12:26.148Z,3.30
2018-06-24T10:14:55.202Z,2.70
2018-06-24T10:17:24.144Z,3.20
2018-06-24T10:19:58.660Z,4.50
2018-06-24T10:22:27.621Z,4.03
2018-06-24T10:24:57.061Z,3.90
2018-06-24T10:27:26.228Z,4.40
2018-06-24T10:29:55.136Z,3.87
2018-06-24T10:32:23.805Z,4.80
2018-06-24T10:34:52.379Z,4.90
2018-06-24T10:37:21.058Z,4.83
2018-06-24T10:39:49.823Z,3.93
2018-06-24T10:42:18.580Z,3.70
2018-06-24T10:44:47.179Z,3.80
2018-06-24T10:47:15.969Z,3.90
2018-06-24T10:49:44.892Z,3.90
2018-06-24T10:52:13.577Z,3.73
2018-06-24T10:54:42.271Z,3.20
2018-06-24T10:57:10.980Z,3.00
2018-06-24T10:59:39.492Z,3.73
2018-06-24T11:02:08.068Z,3.10
2018-06-24T11:04:37.100Z,3.57
2018-06-24T11:07:06.018Z,2.57
2018-06-24T11:09:37.169Z,3.50
2018-06-24T11:12:05.953Z,2.80
2018-06-24T11:14:34.840Z,2.80
2018-06-24T11:17:03.897Z,2.30
2018-06-24T11:19:32.990Z,2.00
2018-06-24T11:22:01.798Z,1.87
2018-06-24T11:24:30.776Z,2.07
2018-06-24T11:26:59.504Z,2.30
2018-06-24T11:29:28.354Z,2.27
2018-06-24T11:31:57.384Z,2.27
2018-06-24T11:34:25.981Z,2.20
2018-06-24T11:36:54.619Z,2.10
2018-06-24T11:39:23.319Z,2.07
2018-06-24T11:41:52.039Z,2.20
2018-06-24T11:44:21.279Z,2.00
2018-06-24T11:46:49.931Z,2.30
2018-06-24T11:49:18.613Z,2.50
2018-06-24T11:51:47.233Z,2.00
2018-06-24T11:54:15.874Z,2.40
2018-06-24T11:56:44.523Z,2.00
2018-06-24T11:59:13.119Z,1.90
2018-06-24T12:01:41.799Z,1.70
2018-06-24T12:04:10.434Z,2.50
2018-06-24T12:06:39.126Z,1.80
2018-06-24T12:09:09.913Z,2.23
2018-06-24T12:11:42.859Z,3.20
2018-06-24T12:14:11.918Z,2.87
2018-06-24T12:16:40.680Z,2.20
2018-06-24T12:19:09.249Z,2.27
2018-06-24T12:21:38.025Z,2.00
2018-06-24T12:24:06.647Z,2.40
2018-06-24T12:26:35.360Z,1.90
2018-06-24T12:29:04.040Z,2.57
2018-06-24T12:31:32.840Z,2.00
2018-06-24T12:34:01.576Z,2.07
2018-06-24T12:36:38.509Z,2.17
2018-06-24T12:39:12.046Z,3.60
2018-06-24T12:41:40.901Z,1.93
2018-06-24T12:44:10.386Z,1.87
2018-06-24T12:46:39.266Z,2.53
2018-06-24T12:49:09.065Z,2.37
2018-06-24T12:51:38.863Z,1.87
2018-06-24T12:54:07.927Z,2.07
2018-06-24T12:56:36.733Z,2.10
2018-06-24T12:59:05.678Z,2.23
2018-06-24T13:01:34.459Z,1.97
2018-06-24T13:04:03.084Z,2.10
2018-06-24T13:06:31.735Z,1.80
2018-06-24T13:09:00.455Z,1.90
2018-06-24T13:11:29.209Z,1.70
2018-06-24T13:13:58.167Z,1.67
2018-06-24T13:16:27.156Z,1.97
2018-06-24T13:18:56.299Z,1.93
2018-06-24T13:21:25.180Z,2.67
2018-06-24T13:23:53.967Z,2.37
2018-06-24T13:26:22.813Z,2.60
2018-06-24T13:28:51.660Z,2.10
2018-06-24T13:31:20.477Z,2.00
2018-06-24T13:33:49.326Z,3.20
2018-06-24T13:36:18.097Z,2.83
2018-06-24T13:38:47.146Z,2.27
2018-06-24T13:41:16.008Z,2.23
2018-06-24T13:43:44.927Z,3.10
2018-06-24T13:46:14.612Z,2.43
2018-06-24T13:48:43.325Z,2.20
2018-06-24T13:51:12.008Z,2.10
2018-06-24T13:53:41.089Z,3.33
2018-06-24T13:56:09.941Z,2.30
2018-06-24T13:58:38.712Z,4.20
2018-06-24T14:01:07.732Z,2.20
2018-06-24T14:03:36.746Z,2.43
2018-06-24T14:06:05.522Z,2.80
2018-06-24T14:08:34.275Z,2.50
2018-06-24T14:11:03.632Z,2.30
2018-06-24T14:13:32.449Z,3.33
2018-06-24T14:16:01.424Z,3.87
2018-06-24T14:18:30.098Z,3.40
2018-06-24T14:20:59.052Z,3.30
2018-06-24T14:23:28.004Z,2.60
2018-06-24T14:25:56.676Z,2.70
2018-06-24T14:28:25.417Z,2.30
2018-06-24T14:30:53.987Z,2.50
2018-06-24T14:33:22.978Z,2.50
2018-06-24T14:35:51.707Z,3.07
2018-06-24T14:38:20.312Z,2.47
2018-06-24T14:40:49.705Z,3.27
2018-06-24T14:43:18.398Z,2.80
2018-06-24T14:45:47.113Z,3.03
2018-06-24T14:48:15.880Z,3.07
2018-06-24T14:50:44.701Z,2.90
2018-06-24T14:53:13.723Z,3.83
2018-06-24T14:55:42.559Z,3.50
2018-06-24T14:58:11.252Z,3.80
2018-06-24T15:00:39.923Z,3.30
2018-06-24T15:03:08.696Z,3.70
2018-06-24T15:05:37.318Z,3.87
2018-06-24T15:08:06.345Z,3.90
2018-06-24T15:10:35.069Z,4.10
2018-06-24T15:13:03.674Z,3.53
2018-06-24T15:15:32.442Z,3.40
2018-06-24T15:18:01.103Z,2.90
2018-06-24T15:20:29.838Z,3.30
2018-06-24T15:22:58.893Z,3.10
2018-06-24T15:25:27.523Z,3.50
2018-06-24T15:27:57.772Z,2.93
2018-06-24T15:30:26.589Z,3.13
2018-06-24T15:32:55.297Z,4.60
2018-06-24T15:35:23.955Z,3.80
2018-06-24T15:37:52.786Z,3.07
2018-06-24T15:40:21.573Z,3.50
2018-06-24T15:42:50.373Z,4.70
2018-06-24T15:45:19.085Z,4.13
2018-06-24T15:47:47.707Z,3.43
2018-06-24T15:50:16.342Z,4.20
2018-06-24T15:52:44.975Z,4.00
2018-06-24T15:55:14.106Z,4.30
2018-06-24T15:57:42.773Z,3.87
2018-06-24T16:00:11.557Z,4.30
2018-06-24T16:02:40.351Z,4.07
2018-06-24T16:05:09.448Z,4.20
2018-06-24T16:07:39.293Z,4.47
2018-06-24T16:10:08.938Z,4.50
2018-06-24T16:12:39.084Z,3.67
2018-06-24T16:15:08.496Z,3.60
2018-06-24T16:17:37.922Z,3.63
2018-06-24T16:20:07.099Z,3.53
2018-06-24T16:22:35.808Z,3.67
2018-06-24T16:25:04.773Z,3.60
2018-06-24T16:27:34.064Z,3.73
2018-06-24T16:30:02.941Z,3.73
2018-06-24T16:32:32.722Z,3.87
2018-06-24T16:35:01.440Z,4.00
2018-06-24T16:37:30.338Z,5.83
2018-06-24T16:39:59.255Z,4.07
2018-06-24T16:42:28.696Z,3.73
2018-06-24T16:45:10.296Z,3.60
2018-06-24T16:47:39.410Z,3.87
2018-06-24T16:50:08.472Z,4.20
2018-06-24T16:52:37.430Z,3.77
2018-06-24T16:55:06.545Z,4.23
2018-06-24T16:57:35.274Z,4.90
2018-06-24T17:00:04.164Z,5.07
2018-06-24T17:02:32.952Z,4.70
2018-06-24T17:05:01.870Z,4.60
2018-06-24T17:07:30.771Z,4.57
2018-06-24T17:09:59.638Z,5.43
2018-06-24T17:12:29.648Z,4.77
2018-06-24T17:14:59.480Z,5.87
2018-06-24T17:17:28.248Z,4.73
2018-06-24T17:19:57.080Z,4.83
2018-06-24T17:22:27.396Z,4.80
2018-06-24T17:24:56.261Z,5.93
2018-06-24T17:27:25.074Z,6.63
2018-06-24T17:29:53.999Z,6.70
2018-06-24T17:32:22.844Z,4.63
2018-06-24T17:34:51.814Z,9.87
2018-06-24T17:37:20.706Z,8.13
2018-06-24T17:39:49.466Z,6.80
2018-06-24T17:42:18.406Z,5.03
2018-06-24T17:44:47.252Z,4.33
2018-06-24T17:47:16.098Z,4.53
2018-06-24T17:49:44.910Z,6.33
2018-06-24T17:52:13.552Z,13.07
2018-06-24T17:54:42.303Z,8.07
2018-06-24T17:57:10.976Z,10.33
2018-06-24T17:59:39.701Z,10.90
2018-06-24T18:02:09.055Z,5.00
2018-06-24T18:04:37.959Z,7.73
2018-06-24T18:07:06.568Z,4.30
2018-06-24T18:09:35.376Z,5.43
2018-06-24T18:12:06.358Z,5.20
2018-06-24T18:14:34.976Z,5.97
2018-06-24T18:17:04.480Z,4.10
2018-06-24T18:19:33.120Z,4.30
2018-06-24T18:22:01.621Z,5.67
2018-06-24T18:24:32.735Z,5.53
2018-06-24T18:27:01.761Z,5.40
2018-06-24T18:29:31.336Z,8.93
2018-06-24T18:32:02.137Z,7.13
2018-06-24T18:34:31.361Z,7.07
2018-06-24T18:37:00.787Z,7.47
2018-06-24T18:39:29.918Z,4.23
2018-06-24T18:41:58.696Z,4.23
2018-06-24T18:44:27.662Z,5.00
2018-06-24T18:46:56.448Z,4.87
2018-06-24T18:49:25.090Z,4.10
2018-06-24T18:51:53.830Z,5.10
2018-06-24T18:54:22.742Z,3.43
2018-06-24T18:56:51.315Z,3.77
2018-06-24T18:59:19.905Z,3.93
2018-06-24T19:01:48.781Z,4.83
2018-06-24T19:04:17.698Z,5.13
2018-06-24T19:06:46.409Z,4.50
2018-06-24T19:09:15.163Z,5.03
2018-06-24T19:11:43.964Z,3.83
2018-06-24T19:14:12.567Z,4.43
2018-06-24T19:16:41.683Z,3.30
2018-06-24T19:19:10.312Z,4.17
2018-06-24T19:21:38.829Z,4.20
2018-06-24T19:24:07.517Z,3.83
2018-06-24T19:26:36.151Z,6.40
2018-06-24T19:29:04.825Z,5.70
2018-06-24T19:31:33.365Z,4.23
2018-06-24T19:34:01.953Z,3.67
2018-06-24T19:36:30.530Z,4.70
2018-06-24T19:38:59.157Z,4.53
2018-06-24T19:41:27.771Z,4.50
2018-06-24T19:43:56.491Z,6.43
2018-06-24T19:46:25.163Z,3.63
2018-06-24T19:48:53.693Z,5.07
2018-06-24T19:51:22.361Z,6.70
2018-06-24T19:53:51.220Z,3.57
2018-06-24T19:56:19.903Z,3.73
2018-06-24T19:58:48.790Z,3.73
2018-06-24T20:01:17.728Z,5.23
2018-06-24T20:03:46.875Z,5.23
2018-06-24T20:06:15.921Z,3.83
2018-06-24T20:08:45.101Z,4.70
2018-06-24T20:11:14.256Z,5.53
2018-06-24T20:13:43.101Z,4.97
2018-06-24T20:16:11.876Z,4.47
2018-06-24T20:18:41.516Z,4.13
2018-06-24T20:21:10.369Z,5.53
2018-06-24T20:23:39.076Z,3.23
2018-06-24T20:26:08.071Z,3.00
2018-06-24T20:28:36.937Z,2.83
2018-06-24T20:31:05.823Z,2.07
2018-06-24T20:33:34.738Z,2.67
2018-06-24T20:36:03.571Z,11.90
2018-06-24T20:38:32.319Z,9.33
2018-06-24T20:41:01.176Z,8.53
2018-06-24T20:43:29.936Z,1.80
2018-06-24T20:45:58.685Z,1.40
2018-06-24T20:48:27.513Z,1.77
2018-06-24T20:50:56.395Z,2.70
2018-06-24T20:53:25.068Z,3.37
2018-06-24T20:55:54.430Z,1.80
2018-06-24T20:58:23.399Z,1.23
2018-06-24T21:00:52.142Z,4.80
2018-06-24T21:03:21.023Z,9.00
2018-06-24T21:05:49.692Z,1.80
2018-06-24T21:08:18.365Z,3.27
2018-06-24T21:10:47.084Z,1.50
2018-06-24T21:13:15.925Z,1.10
2018-06-24T21:15:44.824Z,1.60
2018-06-24T21:18:13.552Z,2.10
2018-06-24T21:20:42.251Z,2.10
2018-06-24T21:23:10.956Z,1.70
2018-06-24T21:25:39.580Z,3.40
2018-06-24T21:28:08.467Z,12.20
2018-06-24T21:30:37.328Z,2.43
2018-06-24T21:33:05.979Z,7.87
2018-06-24T21:35:34.657Z,2.30
2018-06-24T21:38:03.215Z,2.57
2018-06-24T21:40:32.027Z,3.13
2018-06-24T21:43:00.714Z,4.33
2018-06-24T21:45:29.849Z,3.80
2018-06-24T21:47:58.485Z,5.70
2018-06-24T21:50:27.273Z,2.93
2018-06-24T21:52:56.068Z,3.50
2018-06-24T21:55:24.752Z,11.53
2018-06-24T21:57:53.460Z,4.07
2018-06-24T22:00:22.318Z,4.67
2018-06-24T22:02:51.026Z,4.63
2018-06-24T22:05:20.547Z,5.00
2018-06-24T22:07:49.263Z,6.20
2018-06-24T22:10:17.970Z,15.47
2018-06-24T22:12:46.801Z,5.80
2018-06-24T22:15:15.728Z,6.03
2018-06-24T22:17:44.413Z,6.10
2018-06-24T22:20:13.296Z,5.93
2018-06-24T22:22:41.986Z,5.97
2018-06-24T22:25:10.762Z,9.00
2018-06-24T22:27:39.982Z,7.23
2018-06-24T22:30:08.543Z,8.23
2018-06-24T22:32:37.108Z,7.00
2018-06-24T22:35:05.680Z,8.00
2018-06-24T22:37:34.269Z,15.17
2018-06-24T22:40:02.796Z,12.30
2018-06-24T22:42:31.415Z,8.17
2018-06-24T22:45:00.013Z,8.47
2018-06-24T22:47:28.653Z,9.60
2018-06-24T22:49:57.280Z,8.50
2018-06-24T22:52:25.953Z,9.93
2018-06-24T22:54:54.563Z,10.53
2018-06-24T22:57:23.120Z,9.63
2018-06-24T23:00:25.268Z,8.80
2018-06-24T23:02:53.819Z,9.60
2018-06-24T23:05:22.335Z,9.53
2018-06-24T23:07:50.953Z,10.17
2018-06-24T23:10:19.483Z,10.23
2018-06-24T23:12:48.066Z,9.83
2018-06-24T23:15:16.630Z,9.83
2018-06-24T23:17:45.240Z,11.67
2018-06-24T23:20:14.026Z,9.73
2018-06-24T23:22:42.687Z,11.77
2018-06-24T23:25:11.366Z,9.67
2018-06-24T23:27:40.011Z,9.23
2018-06-24T23:30:08.866Z,10.60
2018-06-24T23:32:37.751Z,9.93
2018-06-24T23:35:06.456Z,10.33
2018-06-24T23:37:35.114Z,9.27
2018-06-24T23:40:03.753Z,10.80
2018-06-24T23:42:32.384Z,10.70
2018-06-24T23:45:00.907Z,9.90
2018-06-24T23:47:29.717Z,10.70
2018-06-24T23:49:58.270Z,11.50
2018-06-24T23:52:26.813Z,10.67
2018-06-24T23:54:55.372Z,10.83
2018-06-24T23:57:24.161Z,10.50
2018-06-24T23:59:52.852Z,11.10
